createdAt,value
2023-04-06T00:00:39.044Z,11.10
2023-04-06T00:03:17.695Z,11.12
2023-04-06T00:05:46.244Z,11.00
2023-04-06T00:08:13.880Z,10.86
2023-04-06T00:10:41.982Z,10.98
2023-04-06T00:13:09.715Z,11.22
2023-04-06T00:15:37.750Z,10.91
2023-04-06T00:18:05.590Z,10.99
2023-04-06T00:20:33.814Z,11.06
2023-04-06T00:23:01.738Z,10.96
2023-04-06T00:25:29.894Z,10.61
2023-04-06T00:27:57.660Z,10.37
2023-04-06T00:30:25.829Z,10.83
2023-04-06T00:32:53.680Z,10.60
2023-04-06T00:35:21.765Z,10.50
2023-04-06T00:37:49.564Z,10.61
2023-04-06T00:40:17.805Z,10.84
2023-04-06T00:42:46.644Z,11.20
2023-04-06T00:45:15.244Z,11.20
2023-04-06T00:47:43.362Z,11.24
2023-04-06T00:50:11.884Z,10.80
2023-04-06T00:52:39.825Z,10.56
2023-04-06T00:55:10.657Z,10.59
2023-04-06T00:57:43.163Z,10.68
2023-04-06T01:00:13.250Z,10.36
2023-04-06T01:02:41.463Z,10.27
2023-04-06T01:05:11.738Z,10.28
2023-04-06T01:07:59.692Z,10.27
2023-04-06T01:10:31.107Z,10.29
2023-04-06T01:13:06.017Z,10.07
2023-04-06T01:15:48.779Z,10.38
2023-04-06T01:18:27.532Z,10.43
2023-04-06T01:21:04.431Z,10.35
2023-04-06T01:23:32.133Z,10.36
2023-04-06T01:26:00.579Z,10.41
2023-04-06T01:28:30.105Z,10.44
2023-04-06T01:31:23.652Z,10.76
2023-04-06T01:33:53.869Z,10.66
2023-04-06T01:36:24.942Z,10.65
2023-04-06T01:39:15.883Z,10.56
2023-04-06T01:41:44.367Z,10.52
2023-04-06T01:44:12.678Z,10.43
2023-04-06T01:46:42.466Z,10.60
2023-04-06T01:49:12.027Z,10.52
2023-04-06T01:51:42.763Z,10.61
2023-04-06T01:54:13.836Z,10.57
2023-04-06T01:57:17.265Z,10.39
2023-04-06T01:59:53.606Z,10.39
2023-04-06T02:02:41.488Z,10.15
2023-04-06T02:05:16.391Z,10.32
2023-04-06T02:07:45.576Z,10.04
2023-04-06T02:10:16.851Z,10.05
2023-04-06T02:12:46.139Z,10.23
2023-04-06T02:15:20.462Z,10.18
2023-04-06T02:17:49.379Z,10.18
2023-04-06T02:20:17.213Z,10.56
2023-04-06T02:22:45.385Z,10.59
2023-04-06T02:25:13.127Z,10.55
2023-04-06T02:27:41.212Z,10.41
2023-04-06T02:30:09.102Z,10.58
2023-04-06T02:32:37.678Z,10.38
2023-04-06T02:35:06.180Z,10.35
2023-04-06T02:37:35.926Z,10.10
2023-04-06T02:40:03.768Z,10.31
2023-04-06T02:42:34.068Z,10.25
2023-04-06T02:45:02.150Z,10.03
2023-04-06T02:47:35.157Z,10.35
2023-04-06T02:50:03.048Z,10.03
2023-04-06T02:52:33.295Z,9.85
2023-04-06T02:55:01.956Z,9.79
2023-04-06T02:57:32.417Z,10.00
2023-04-06T03:00:00.306Z,10.02
2023-04-06T03:02:36.983Z,10.07
2023-04-06T03:05:10.029Z,9.96
2023-04-06T03:07:42.927Z,9.84
2023-04-06T03:10:16.449Z,9.82
2023-04-06T03:12:46.817Z,9.92
2023-04-06T03:15:37.155Z,9.80
2023-04-06T03:18:14.727Z,9.71
2023-04-06T03:20:48.658Z,9.73
2023-04-06T03:23:18.345Z,9.80
2023-04-06T03:25:47.214Z,9.93
2023-04-06T03:28:19.016Z,10.11
2023-04-06T03:30:54.665Z,9.96
2023-04-06T03:33:38.596Z,10.17
2023-04-06T03:36:08.013Z,10.19
2023-04-06T03:38:41.432Z,9.64
2023-04-06T03:41:14.881Z,9.59
2023-04-06T03:43:48.955Z,9.78
2023-04-06T03:46:16.749Z,9.65
2023-04-06T03:48:44.955Z,10.01
2023-04-06T03:51:12.738Z,9.84
2023-04-06T03:53:40.953Z,9.61
2023-04-06T03:56:08.693Z,9.41
2023-04-06T03:58:36.812Z,9.56
2023-04-06T04:01:04.636Z,9.57
2023-04-06T04:03:32.895Z,9.53
2023-04-06T04:06:00.871Z,9.44
2023-04-06T04:08:29.139Z,9.50
2023-04-06T04:10:56.984Z,9.64
2023-04-06T04:13:25.719Z,9.75
2023-04-06T04:15:54.183Z,9.73
2023-04-06T04:18:22.332Z,9.39
2023-04-06T04:20:50.172Z,9.43
2023-04-06T04:23:22.239Z,9.18
2023-04-06T04:25:49.985Z,9.34
2023-04-06T04:28:18.216Z,9.44
2023-04-06T04:30:47.439Z,9.41
2023-04-06T04:33:16.654Z,9.31
2023-04-06T04:35:45.599Z,9.37
2023-04-06T04:38:17.635Z,9.47
2023-04-06T04:40:50.816Z,9.28
2023-04-06T04:43:19.269Z,9.34
2023-04-06T04:45:47.892Z,9.37
2023-04-06T04:48:35.521Z,9.16
2023-04-06T04:51:05.752Z,9.15
2023-04-06T04:53:54.141Z,9.08
2023-04-06T04:56:26.482Z,9.01
2023-04-06T04:59:00.608Z,9.10
2023-04-06T05:01:40.715Z,8.97
2023-04-06T05:04:16.680Z,9.23
2023-04-06T05:06:44.593Z,9.26
2023-04-06T05:09:13.064Z,9.16
2023-04-06T05:11:43.416Z,8.97
2023-04-06T05:14:12.222Z,9.05
2023-04-06T05:16:39.945Z,9.21
2023-04-06T05:19:08.830Z,9.21
2023-04-06T05:21:42.864Z,9.17
2023-04-06T05:24:11.507Z,9.19
2023-04-06T05:26:41.939Z,9.45
2023-04-06T05:29:18.475Z,9.64
2023-04-06T05:31:47.324Z,9.55
2023-04-06T05:34:15.826Z,9.79
2023-04-06T05:36:43.751Z,9.80
2023-04-06T05:39:25.061Z,9.89
2023-04-06T05:41:54.629Z,9.98
2023-04-06T05:44:33.618Z,10.32
2023-04-06T05:47:07.841Z,10.25
2023-04-06T05:49:37.336Z,10.47
2023-04-06T05:52:09.917Z,10.31
2023-04-06T05:54:38.382Z,10.16
2023-04-06T05:57:06.227Z,10.10
2023-04-06T05:59:34.910Z,10.51
2023-04-06T06:02:03.309Z,10.51
2023-04-06T06:04:34.824Z,10.60
2023-04-06T06:07:03.675Z,10.48
2023-04-06T06:09:40.242Z,10.61
2023-04-06T06:12:29.231Z,10.56
2023-04-06T06:14:57.949Z,10.60
2023-04-06T06:17:27.941Z,10.52
2023-04-06T06:19:56.693Z,10.77
2023-04-06T06:22:24.418Z,11.29
2023-04-06T06:24:52.644Z,11.53
2023-04-06T06:27:21.986Z,11.68
2023-04-06T06:29:50.325Z,11.86
2023-04-06T06:32:19.421Z,11.69
2023-04-06T06:34:51.395Z,11.86
2023-04-06T06:37:20.174Z,11.98
2023-04-06T06:39:50.041Z,11.86
2023-04-06T06:42:19.227Z,11.92
2023-04-06T06:45:08.353Z,12.26
2023-04-06T06:47:36.189Z,12.22
2023-04-06T06:50:04.466Z,11.53
2023-04-06T06:52:32.506Z,12.10
2023-04-06T06:55:01.798Z,12.08
2023-04-06T06:57:29.634Z,12.03
2023-04-06T06:59:58.578Z,11.55
2023-04-06T07:02:26.517Z,11.45
2023-04-06T07:04:54.743Z,11.93
2023-04-06T07:07:22.957Z,12.63
2023-04-06T07:09:51.561Z,12.34
2023-04-06T07:12:19.383Z,12.27
2023-04-06T07:14:47.508Z,13.08
2023-04-06T07:17:15.292Z,12.41
2023-04-06T07:19:44.023Z,12.65
2023-04-06T07:22:11.836Z,12.72
2023-04-06T07:24:39.937Z,13.37
2023-04-06T07:27:08.513Z,13.03
2023-04-06T07:29:36.576Z,13.20
2023-04-06T07:32:04.589Z,12.42
2023-04-06T07:34:34.451Z,13.18
2023-04-06T07:37:04.322Z,13.26
2023-04-06T07:39:33.276Z,12.99
2023-04-06T07:42:02.332Z,13.39
2023-04-06T07:44:30.591Z,13.55
2023-04-06T07:46:58.442Z,14.13
2023-04-06T07:49:28.001Z,13.63
2023-04-06T07:51:57.361Z,14.28
2023-04-06T07:54:26.584Z,14.61
2023-04-06T07:56:54.412Z,13.54
2023-04-06T07:59:22.577Z,13.46
2023-04-06T08:01:50.331Z,13.87
2023-04-06T08:04:18.771Z,13.51
2023-04-06T08:06:46.580Z,14.44
2023-04-06T08:09:14.681Z,14.77
2023-04-06T08:11:42.438Z,15.33
2023-04-06T08:14:10.652Z,15.82
2023-04-06T08:16:38.702Z,16.02
2023-04-06T08:19:08.651Z,15.17
2023-04-06T08:21:36.899Z,15.18
2023-04-06T08:24:05.311Z,15.52
2023-04-06T08:26:32.979Z,15.98
2023-04-06T08:29:01.282Z,14.46
2023-04-06T08:31:29.094Z,14.06
2023-04-06T08:33:57.609Z,13.86
2023-04-06T08:36:25.662Z,13.71
2023-04-06T08:38:55.029Z,13.25
2023-04-06T08:41:22.748Z,13.44
2023-04-06T08:43:57.801Z,13.76
2023-04-06T08:46:31.133Z,14.10
2023-04-06T08:49:00.569Z,13.91
2023-04-06T08:51:29.041Z,14.15
2023-04-06T08:53:58.598Z,14.15
2023-04-06T08:56:29.276Z,14.77
2023-04-06T08:58:57.751Z,14.37
2023-04-06T09:01:29.337Z,14.38
2023-04-06T09:04:06.691Z,13.68
2023-04-06T09:06:38.247Z,14.41
2023-04-06T09:09:06.611Z,14.96
2023-04-06T09:11:47.982Z,14.45
2023-04-06T09:14:16.710Z,14.73
2023-04-06T09:16:46.296Z,14.65
2023-04-06T09:19:14.490Z,13.97
2023-04-06T09:21:42.411Z,14.49
2023-04-06T09:24:11.437Z,15.09
2023-04-06T09:26:47.378Z,15.51
2023-04-06T09:29:27.261Z,14.31
2023-04-06T09:32:03.289Z,14.38
2023-04-06T09:34:32.054Z,14.96
2023-04-06T09:36:59.872Z,14.96
2023-04-06T09:39:27.999Z,15.49
2023-04-06T09:41:56.972Z,14.86
2023-04-06T09:44:25.669Z,14.77
2023-04-06T09:47:00.466Z,14.99
2023-04-06T09:49:31.584Z,14.95
2023-04-06T09:52:09.773Z,15.92
2023-04-06T09:54:39.137Z,16.91
2023-04-06T09:57:18.568Z,15.56
2023-04-06T10:00:12.556Z,15.61
2023-04-06T10:02:59.454Z,15.86
2023-04-06T10:05:44.965Z,16.34
2023-04-06T10:08:13.216Z,16.07
2023-04-06T10:10:41.330Z,16.38
2023-04-06T10:13:11.496Z,16.03
2023-04-06T10:15:40.074Z,15.80
2023-04-06T10:18:08.826Z,16.86
2023-04-06T10:20:52.408Z,16.61
2023-04-06T10:23:34.475Z,17.20
2023-04-06T10:26:02.944Z,17.82
2023-04-06T10:28:35.646Z,16.37
2023-04-06T10:31:07.312Z,16.94
2023-04-06T10:33:35.508Z,17.41
2023-04-06T10:36:13.372Z,16.30
2023-04-06T10:38:42.227Z,16.84
2023-04-06T10:41:13.920Z,18.56
2023-04-06T10:43:42.619Z,18.78
2023-04-06T10:46:11.757Z,17.78
2023-04-06T10:48:40.272Z,17.49
2023-04-06T10:51:09.518Z,17.62
2023-04-06T10:53:37.292Z,17.60
2023-04-06T10:56:12.229Z,17.95
2023-04-06T10:58:45.381Z,17.25
2023-04-06T11:01:14.008Z,17.51
2023-04-06T11:03:48.977Z,17.68
2023-04-06T11:06:24.476Z,18.15
2023-04-06T11:08:52.785Z,17.42
2023-04-06T11:11:22.293Z,17.77
2023-04-06T11:13:51.746Z,18.76
2023-04-06T11:16:21.634Z,18.80
2023-04-06T11:18:55.524Z,18.87
2023-04-06T11:21:38.154Z,18.51
2023-04-06T11:24:11.966Z,17.84
2023-04-06T11:26:41.571Z,17.97
2023-04-06T11:29:09.525Z,19.67
2023-04-06T11:31:41.659Z,18.90
2023-04-06T11:34:29.180Z,18.36
2023-04-06T11:37:01.556Z,17.79
2023-04-06T11:39:29.962Z,19.72
2023-04-06T11:42:05.573Z,18.75
2023-04-06T11:44:34.923Z,19.13
2023-04-06T11:47:04.134Z,19.30
2023-04-06T11:49:32.556Z,18.28
2023-04-06T11:52:03.292Z,18.25
2023-04-06T11:54:32.064Z,18.33
2023-04-06T11:57:00.314Z,19.00
2023-04-06T11:59:28.453Z,20.70
2023-04-06T12:01:57.554Z,21.08
2023-04-06T12:04:25.755Z,21.00
2023-04-06T12:06:54.076Z,20.23
2023-04-06T12:09:22.198Z,19.03
2023-04-06T12:11:50.424Z,18.40
2023-04-06T12:14:18.241Z,20.43
2023-04-06T12:16:46.443Z,20.01
2023-04-06T12:19:14.206Z,19.34
2023-04-06T12:21:42.297Z,19.21
2023-04-06T12:24:10.058Z,19.11
2023-04-06T12:26:38.505Z,18.65
2023-04-06T12:29:08.427Z,19.79
2023-04-06T12:31:37.444Z,18.78
2023-04-06T12:34:05.284Z,18.48
2023-04-06T12:36:33.469Z,18.28
2023-04-06T12:39:04.399Z,19.31
2023-04-06T12:41:32.440Z,19.11
2023-04-06T12:44:01.121Z,19.13
2023-04-06T12:46:31.909Z,18.61
2023-04-06T12:49:00.399Z,19.13
2023-04-06T12:51:32.676Z,18.59
2023-04-06T12:54:00.478Z,19.60
2023-04-06T12:56:28.998Z,19.71
2023-04-06T12:58:56.989Z,20.44
2023-04-06T13:01:26.758Z,19.40
2023-04-06T13:03:54.728Z,19.39
2023-04-06T13:06:22.966Z,19.27
2023-04-06T13:08:51.424Z,19.41
2023-04-06T13:11:21.776Z,19.41
2023-04-06T13:13:49.557Z,19.17
2023-04-06T13:16:17.817Z,20.45
2023-04-06T13:18:45.882Z,19.82
2023-04-06T13:21:17.815Z,20.25
2023-04-06T13:23:45.711Z,19.16
2023-04-06T13:26:14.893Z,19.77
2023-04-06T13:28:42.905Z,20.04
2023-04-06T13:31:11.242Z,20.11
2023-04-06T13:33:39.737Z,20.53
2023-04-06T13:36:08.826Z,19.83
2023-04-06T13:38:36.615Z,20.36
2023-04-06T13:41:04.722Z,21.00
2023-04-06T13:43:32.460Z,19.91
2023-04-06T13:46:02.569Z,21.14
2023-04-06T13:48:30.813Z,21.33
2023-04-06T13:50:58.991Z,22.44
2023-04-06T13:53:29.031Z,20.71
2023-04-06T13:55:57.228Z,19.86
2023-04-06T13:58:25.368Z,20.12
2023-04-06T14:00:54.090Z,19.23
2023-04-06T14:03:22.750Z,20.86
2023-04-06T14:05:51.389Z,20.52
2023-04-06T14:08:19.081Z,20.84
2023-04-06T14:10:47.279Z,21.28
2023-04-06T14:13:15.016Z,20.49
2023-04-06T14:15:43.086Z,19.70
2023-04-06T14:18:10.887Z,19.22
2023-04-06T14:20:39.027Z,19.49
2023-04-06T14:23:06.870Z,19.62
2023-04-06T14:25:36.025Z,20.49
2023-04-06T14:28:03.929Z,19.03
2023-04-06T14:30:32.395Z,19.61
2023-04-06T14:33:00.200Z,19.14
2023-04-06T14:35:29.580Z,19.27
2023-04-06T14:37:59.217Z,19.38
2023-04-06T14:40:27.421Z,18.81
2023-04-06T14:42:56.926Z,19.32
2023-04-06T14:45:24.992Z,19.20
2023-04-06T14:47:52.798Z,19.43
2023-04-06T14:50:20.941Z,19.02
2023-04-06T14:52:48.614Z,20.01
2023-04-06T14:55:16.930Z,20.18
2023-04-06T14:57:44.642Z,19.82
2023-04-06T15:00:13.322Z,19.93
2023-04-06T15:02:41.608Z,20.32
2023-04-06T15:05:09.930Z,20.67
2023-04-06T15:07:37.652Z,19.33
2023-04-06T15:10:06.769Z,20.06
2023-04-06T15:12:36.659Z,20.10
2023-04-06T15:15:06.510Z,20.08
2023-04-06T15:17:34.255Z,19.00
2023-04-06T15:20:02.518Z,19.48
2023-04-06T15:22:30.139Z,18.62
2023-04-06T15:24:58.199Z,19.62
2023-04-06T15:27:26.406Z,19.82
2023-04-06T15:29:54.987Z,19.98
2023-04-06T15:32:22.919Z,19.22
2023-04-06T15:34:50.836Z,20.68
2023-04-06T15:37:18.483Z,20.07
2023-04-06T15:39:46.448Z,19.50
2023-04-06T15:42:14.068Z,18.99
2023-04-06T15:44:42.755Z,19.15
2023-04-06T15:47:10.502Z,18.97
2023-04-06T15:49:38.569Z,18.83
2023-04-06T15:52:06.240Z,19.22
2023-04-06T15:54:34.311Z,19.68
2023-04-06T15:57:02.486Z,18.68
2023-04-06T15:59:30.490Z,18.62
2023-04-06T16:02:00.112Z,18.38
2023-04-06T16:04:28.416Z,18.40
2023-04-06T16:06:56.220Z,18.87
2023-04-06T16:09:24.520Z,19.62
2023-04-06T16:11:52.252Z,18.63
2023-04-06T16:14:20.213Z,18.26
2023-04-06T16:16:47.988Z,18.18
2023-04-06T16:19:16.356Z,18.64
2023-04-06T16:21:43.961Z,18.65
2023-04-06T16:24:12.591Z,19.15
2023-04-06T16:26:40.336Z,19.32
2023-04-06T16:29:10.604Z,19.15
2023-04-06T16:31:38.397Z,18.24
2023-04-06T16:34:06.734Z,18.48
2023-04-06T16:36:34.474Z,18.54
2023-04-06T16:39:02.606Z,17.87
2023-04-06T16:41:30.333Z,18.01
2023-04-06T16:43:58.423Z,18.34
2023-04-06T16:46:30.357Z,17.62
2023-04-06T16:48:59.455Z,18.07
2023-04-06T16:51:27.513Z,18.34
2023-04-06T16:53:56.040Z,17.68
2023-04-06T16:56:23.929Z,17.44
2023-04-06T16:58:52.289Z,16.91
2023-04-06T17:01:21.016Z,17.01
2023-04-06T17:03:49.489Z,17.52
2023-04-06T17:06:17.583Z,17.44
2023-04-06T17:08:47.256Z,17.09
2023-04-06T17:11:18.704Z,16.88
2023-04-06T17:13:49.459Z,17.35
2023-04-06T17:16:18.621Z,17.01
2023-04-06T17:18:46.880Z,17.34
2023-04-06T17:21:14.830Z,17.46
2023-04-06T17:23:44.408Z,17.50
2023-04-06T17:26:12.760Z,17.19
2023-04-06T17:28:41.494Z,16.99
2023-04-06T17:31:10.566Z,17.39
2023-04-06T17:33:39.598Z,17.36
2023-04-06T17:36:12.317Z,16.86
2023-04-06T17:38:44.355Z,16.93
2023-04-06T17:41:12.834Z,16.38
2023-04-06T17:43:41.045Z,16.66
2023-04-06T17:46:09.034Z,16.65
2023-04-06T17:48:37.481Z,16.55
2023-04-06T17:51:05.228Z,16.58
2023-04-06T17:53:34.723Z,16.60
2023-04-06T17:56:04.002Z,16.80
2023-04-06T17:58:32.438Z,16.83
2023-04-06T18:01:00.310Z,16.89
2023-04-06T18:03:28.667Z,16.55
2023-04-06T18:05:57.679Z,16.97
2023-04-06T18:08:25.738Z,17.15
2023-04-06T18:10:53.457Z,16.87
2023-04-06T18:13:22.709Z,16.34
2023-04-06T18:15:50.854Z,16.39
2023-04-06T18:18:19.211Z,16.69
2023-04-06T18:20:47.191Z,16.77
2023-04-06T18:23:15.157Z,16.87
2023-04-06T18:25:42.954Z,16.87
2023-04-06T18:28:28.262Z,16.53
2023-04-06T18:30:56.671Z,16.32
2023-04-06T18:33:24.571Z,15.98
2023-04-06T18:35:52.728Z,16.19
2023-04-06T18:38:20.709Z,16.07
2023-04-06T18:40:49.637Z,15.72
2023-04-06T18:43:17.523Z,15.83
2023-04-06T18:45:45.621Z,15.76
2023-04-06T18:48:14.555Z,15.89
2023-04-06T18:50:52.224Z,15.94
2023-04-06T18:53:20.172Z,15.91
2023-04-06T18:55:48.386Z,15.99
2023-04-06T18:58:16.205Z,15.82
2023-04-06T19:00:44.188Z,16.17
2023-04-06T19:03:12.240Z,15.30
2023-04-06T19:05:41.055Z,15.68
2023-04-06T19:08:09.045Z,15.49
2023-04-06T19:10:37.653Z,15.56
2023-04-06T19:13:05.725Z,15.62
2023-04-06T19:15:34.110Z,15.74
2023-04-06T19:18:01.843Z,15.96
2023-04-06T19:20:29.996Z,16.03
2023-04-06T19:22:58.195Z,16.33
2023-04-06T19:25:26.557Z,16.44
2023-04-06T19:27:54.736Z,16.41
2023-04-06T19:30:24.364Z,16.35
2023-04-06T19:32:51.998Z,16.23
2023-04-06T19:35:20.188Z,16.43
2023-04-06T19:37:47.844Z,16.34
2023-04-06T19:40:15.735Z,16.34
2023-04-06T19:42:43.527Z,16.37
2023-04-06T19:45:11.539Z,16.46
2023-04-06T19:47:39.150Z,16.73
2023-04-06T19:50:07.706Z,16.48
2023-04-06T19:52:35.932Z,16.20
2023-04-06T19:55:04.287Z,16.15
2023-04-06T19:57:31.828Z,16.28
2023-04-06T19:59:59.668Z,16.13
2023-04-06T20:02:27.386Z,16.11
2023-04-06T20:04:55.646Z,16.06
2023-04-06T20:07:23.157Z,16.13
2023-04-06T20:09:51.088Z,16.16
2023-04-06T20:12:18.626Z,16.18
2023-04-06T20:14:46.553Z,16.10
2023-04-06T20:17:14.181Z,16.00
2023-04-06T20:19:42.058Z,15.99
2023-04-06T20:22:09.879Z,16.01
2023-04-06T20:24:37.740Z,15.91
2023-04-06T20:27:05.447Z,16.08
2023-04-06T20:29:33.327Z,15.84
2023-04-06T20:32:01.818Z,15.71
2023-04-06T20:34:30.172Z,15.74
2023-04-06T20:36:58.751Z,15.80
2023-04-06T20:39:31.000Z,15.70
2023-04-06T20:41:58.940Z,15.49
2023-04-06T20:44:28.609Z,15.55
2023-04-06T20:46:56.377Z,15.24
2023-04-06T20:49:24.404Z,15.54
2023-04-06T20:51:52.056Z,15.39
2023-04-06T20:54:20.137Z,15.31
2023-04-06T20:56:47.872Z,15.19
2023-04-06T20:59:15.786Z,15.43
2023-04-06T21:01:43.618Z,15.38
2023-04-06T21:04:11.667Z,15.46
2023-04-06T21:06:39.279Z,15.10
2023-04-06T21:09:07.157Z,15.05
2023-04-06T21:11:34.708Z,14.96
2023-04-06T21:14:02.614Z,14.90
2023-04-06T21:16:30.158Z,15.00
2023-04-06T21:18:58.257Z,15.12
2023-04-06T21:21:25.771Z,15.01
2023-04-06T21:23:54.228Z,14.82
2023-04-06T21:26:21.964Z,14.68
2023-04-06T21:28:49.932Z,14.87
2023-04-06T21:31:20.086Z,15.01
2023-04-06T21:33:48.992Z,14.86
2023-04-06T21:36:16.697Z,14.89
2023-04-06T21:38:45.116Z,14.83
2023-04-06T21:41:12.648Z,14.64
2023-04-06T21:43:40.555Z,14.83
2023-04-06T21:46:08.457Z,14.89
2023-04-06T21:48:36.388Z,14.87
2023-04-06T21:51:03.993Z,14.61
2023-04-06T21:53:31.860Z,14.72
2023-04-06T21:56:01.108Z,14.83
2023-04-06T21:58:29.083Z,14.49
2023-04-06T22:00:56.830Z,14.41
2023-04-06T22:03:24.857Z,14.44
2023-04-06T22:05:52.603Z,14.89
2023-04-06T22:08:32.710Z,14.67
2023-04-06T22:11:07.140Z,14.45
2023-04-06T22:13:35.119Z,14.21
2023-04-06T22:16:03.079Z,14.10
2023-04-06T22:18:32.276Z,14.32
2023-04-06T22:21:00.199Z,14.35
2023-04-06T22:23:28.120Z,14.13
2023-04-06T22:25:58.361Z,14.05
2023-04-06T22:28:26.528Z,14.17
2023-04-06T22:30:53.998Z,14.05
2023-04-06T22:33:23.911Z,13.93
2023-04-06T22:35:51.451Z,13.95
2023-04-06T22:38:19.725Z,13.85
2023-04-06T22:40:47.283Z,13.68
2023-04-06T22:43:15.253Z,13.90
2023-04-06T22:45:42.872Z,13.89
2023-04-06T22:48:10.723Z,13.84
2023-04-06T22:50:38.305Z,14.00
2023-04-06T22:53:06.302Z,13.92
2023-04-06T22:55:33.841Z,13.69
2023-04-06T22:58:01.746Z,13.85
2023-04-06T23:00:29.345Z,13.76
2023-04-06T23:02:57.869Z,13.70
2023-04-06T23:05:25.821Z,13.77
2023-04-06T23:07:53.821Z,14.00
2023-04-06T23:10:21.393Z,13.93
2023-04-06T23:12:49.330Z,13.71
2023-04-06T23:15:17.122Z,13.62
2023-04-06T23:17:45.135Z,13.55
2023-04-06T23:20:12.726Z,13.67
2023-04-06T23:22:40.664Z,13.74
2023-04-06T23:25:08.826Z,13.68
2023-04-06T23:27:37.205Z,13.61
2023-04-06T23:30:05.053Z,13.55
2023-04-06T23:32:33.061Z,13.53
2023-04-06T23:35:00.577Z,13.50
2023-04-06T23:37:28.475Z,13.37
2023-04-06T23:39:56.212Z,13.36
2023-04-06T23:42:28.894Z,13.52
2023-04-06T23:44:56.820Z,13.13
2023-04-06T23:47:24.773Z,13.21
2023-04-06T23:49:52.390Z,13.15
2023-04-06T23:52:20.622Z,13.14
2023-04-06T23:54:48.092Z,13.40
2023-04-06T23:57:16.003Z,13.34
2023-04-06T23:59:43.588Z,13.17
